Time;durP1;ratioP1;P1;durP2;ratioP2;P2;SDS_P1;SDS_P2;PMS_P1;PMS_P2;Temp;Humidity;BMP_temperature;BMP_pressure;BME280_temperature;BME280_humidity;BME280_pressure;Samples;Min_cycle;Max_cycle;Signal;HPM_P1;HPM_P2
2022/10/25 00:00:55;;;;;;;1999.90;999.90;;;15.50;99.90;;;;;;4877679;29;20132;-77
2022/10/25 00:03:20;;;;;;;1999.90;999.90;;;15.40;1.00;;;;;;4878189;29;20132;-77
2022/10/25 00:05:46;;;;;;;1999.90;999.90;;;15.50;1.00;;;;;;4878292;29;20071;-77
2022/10/25 00:08:12;;;;;;;1999.90;999.90;;;15.40;99.90;;;;;;4877643;29;20128;-78
2022/10/25 00:10:37;;;;;;;1999.90;999.90;;;15.40;99.90;;;;;;4877869;29;20053;-77
2022/10/25 00:13:04;;;;;;;1999.90;999.90;;;15.40;99.90;;;;;;4877620;29;20049;-77
2022/10/25 00:15:30;;;;;;;1999.90;999.90;;;15.40;99.90;;;;;;4877362;29;20055;-77
2022/10/25 00:17:56;;;;;;;1999.90;999.90;;;15.40;1.00;;;;;;4878072;29;20052;-78
2022/10/25 00:20:21;;;;;;;1999.90;999.90;;;15.50;1.00;;;;;;4878603;29;20053;-77
2022/10/25 00:22:47;;;;;;;1999.90;999.90;;;15.40;1.00;;;;;;4877969;29;20053;-77
2022/10/25 00:25:13;;;;;;;1999.90;999.90;;;15.50;1.00;;;;;;4877559;29;20064;-78
2022/10/25 00:27:38;;;;;;;1999.90;999.90;;;15.60;73.50;;;;;;4862731;29;20063;-77
2022/10/25 00:30:05;;;;;;;1999.90;999.90;;;15.60;33.60;;;;;;4879094;29;20049;-76
2022/10/25 00:32:32;;;;;;;1999.90;999.90;;;15.80;99.90;;;;;;4877883;29;20045;-77
2022/10/25 00:34:58;;;;;;;1999.90;999.90;;;15.80;37.70;;;;;;4877341;29;20084;-78
2022/10/25 00:37:23;;;;;;;1999.90;999.90;;;15.90;47.40;;;;;;4860271;29;20474;-77
2022/10/25 00:39:49;;;;;;;1999.90;999.90;;;15.90;1.00;;;;;;4877664;29;20045;-77
2022/10/25 00:42:24;;;;;;;1999.90;999.90;;;15.90;1.00;;;;;;4876841;29;20048;-78
2022/10/25 00:44:56;;;;;;;1999.90;999.90;;;15.90;1.00;;;;;;4877588;29;20479;-77
2022/10/25 00:47:27;;;;;;;1999.90;999.90;;;15.90;99.90;;;;;;4876568;29;20508;-77
2022/10/25 00:50:16;;;;;;;1999.90;999.90;;;16.00;99.90;;;;;;4877526;29;20045;-78
2022/10/25 00:52:44;;;;;;;1999.90;999.90;;;16.00;99.90;;;;;;4876374;29;20147;-77
2022/10/25 00:55:13;;;;;;;1999.90;999.90;;;16.00;99.90;;;;;;4877161;29;20045;-77
2022/10/25 00:57:50;;;;;;;1999.90;999.90;;;16.10;99.90;;;;;;4876996;29;20053;-78
2022/10/25 01:00:16;;;;;;;1999.90;999.90;;;16.10;99.90;;;;;;4877750;29;20056;-77
2022/10/25 01:02:42;;;;;;;1999.90;999.90;;;16.20;99.90;;;;;;4876206;29;20076;-77
2022/10/25 01:05:08;;;;;;;1999.90;999.90;;;16.10;1.00;;;;;;4859817;29;20053;-79
2022/10/25 01:07:34;;;;;;;1999.90;999.90;;;16.50;1.00;;;;;;4876883;29;20135;-77
2022/10/25 01:10:00;;;;;;;1999.90;999.90;;;16.10;99.90;;;;;;4877589;29;20049;-78
2022/10/25 01:12:26;;;;;;;1999.90;999.90;;;16.20;99.90;;;;;;4877269;29;20112;-78
2022/10/25 01:14:52;;;;;;;1999.90;999.90;;;16.20;99.90;;;;;;4861058;29;20056;-78
2022/10/25 01:17:23;;;;;;;1999.90;999.90;;;16.20;99.90;;;;;;4877427;29;20049;-77
2022/10/25 01:20:04;;;;;;;1435.68;516.40;;;16.20;99.90;;;;;;4877454;29;20503;-77
2022/10/25 01:22:34;;;;;;;1999.90;999.90;;;16.20;99.90;;;;;;4877582;29;20056;-77
2022/10/25 01:25:15;;;;;;;1999.90;999.90;;;16.30;99.90;;;;;;4877998;29;20498;-77
2022/10/25 01:27:55;;;;;;;1999.90;999.90;;;16.20;99.90;;;;;;4878333;29;20049;-78
2022/10/25 01:30:43;;;;;;;1999.90;999.90;;;16.20;99.90;;;;;;4880470;29;20057;-77
2022/10/25 01:33:20;;;;;;;1999.90;999.90;;;16.10;99.90;;;;;;4880796;29;20100;-76
2022/10/25 01:36:23;;;;;;;1999.90;999.90;;;16.20;99.90;;;;;;4881040;29;20144;-77
2022/10/25 01:39:04;;;;;;;1999.90;999.90;;;16.30;99.90;;;;;;4880120;29;20521;-79
2022/10/25 01:41:45;;;;;;;1999.90;999.90;;;16.20;99.90;;;;;;4880956;29;20041;-78
2022/10/25 01:44:22;;;;;;;1999.90;999.90;;;16.30;99.90;;;;;;4880837;29;20144;-78
2022/10/25 01:47:01;;;;;;;1999.90;377.33;;;16.30;99.90;;;;;;4881205;29;20059;-77
2022/10/25 01:49:47;;;;;;;1999.90;999.90;;;16.40;1.00;;;;;;4880405;29;20052;-77
2022/10/25 01:52:17;;;;;;;1999.90;999.90;;;16.40;26.90;;;;;;4881117;29;20084;-79
2022/10/25 01:54:42;;;;;;;1999.90;999.90;;;16.20;99.90;;;;;;4879526;29;20141;-79
2022/10/25 01:57:32;;;;;;;1999.90;999.90;;;16.30;99.90;;;;;;4881194;29;20138;-80
2022/10/25 02:00:06;;;;;;;1999.90;999.90;;;16.60;1.00;;;;;;4843435;29;20488;-80
2022/10/25 02:03:08;;;;;;;1999.90;999.90;;;16.80;99.90;;;;;;4842280;29;20050;-81
2022/10/25 02:05:54;;;;;;;1999.90;999.90;;;17.00;1.00;;;;;;4841872;29;20096;-82
2022/10/25 02:08:29;;;;;;;1999.90;999.90;;;16.70;99.90;;;;;;4843080;29;20133;-82
2022/10/25 02:11:10;;;;;;;1999.90;999.90;;;17.50;99.90;;;;;;4843324;29;20500;-82
2022/10/25 02:14:13;;;;;;;1999.90;999.90;;;16.70;99.90;;;;;;4827313;29;20077;-82
2022/10/25 02:16:42;;;;;;;1999.90;999.90;;;16.50;99.90;;;;;;4841982;29;20495;-84
2022/10/25 02:19:12;;;;;;;1999.90;999.90;;;17.60;99.90;;;;;;4842358;29;20563;-84
2022/10/25 02:21:39;;;;;;;1999.90;999.90;;;16.60;99.90;;;;;;4842936;29;20050;-85
2022/10/25 02:24:12;;;;;;;1999.90;999.90;;;17.00;99.90;;;;;;4843605;29;20057;-84
2022/10/25 02:26:41;;;;;;;1999.90;999.90;;;17.70;99.90;;;;;;4842780;29;20197;-84
2022/10/25 02:29:09;;;;;;;1999.90;999.90;;;17.50;99.90;;;;;;4843341;29;20093;-84
2022/10/25 02:31:36;;;;;;;1999.90;999.90;;;17.20;99.90;;;;;;4842118;29;20561;-83
2022/10/25 02:34:02;;;;;;;1999.90;999.90;;;16.60;99.90;;;;;;4843631;29;20066;-84
2022/10/25 02:36:28;;;;;;;1999.90;999.90;;;17.90;99.90;;;;;;4842322;29;20057;-84
2022/10/25 02:38:54;;;;;;;1999.90;999.90;;;16.70;99.90;;;;;;4842240;29;20438;-85
2022/10/25 02:41:21;;;;;;;1999.90;999.90;;;16.80;99.90;;;;;;4842399;29;20072;-85
2022/10/25 02:43:47;;;;;;;1999.90;999.90;;;17.60;99.90;;;;;;4842926;29;20624;-84
2022/10/25 02:46:16;;;;;;;1999.90;999.90;;;16.90;99.90;;;;;;4841607;29;20054;-86
2022/10/25 02:48:42;;;;;;;1999.90;999.90;;;16.80;99.90;;;;;;4857822;29;20064;-85
2022/10/25 02:51:09;;;;;;;1999.90;999.90;;;16.90;99.90;;;;;;4842116;29;20090;-84
2022/10/25 02:53:35;;;;;;;1999.90;999.90;;;18.00;99.90;;;;;;4842581;29;20050;-86
2022/10/25 02:56:03;;;;;;;1999.90;999.90;;;18.10;99.90;;;;;;4856815;29;20075;-84
2022/10/25 02:58:34;;;;;;;1999.90;999.90;;;17.00;99.90;;;;;;4856175;29;20069;-86
2022/10/25 03:01:00;;;;;;;1999.90;999.90;;;17.90;99.90;;;;;;4879339;29;20056;-85
2022/10/25 03:03:27;;;;;;;1999.90;999.90;;;17.60;99.90;;;;;;4879400;29;20586;-86
2022/10/25 03:05:53;;;;;;;1999.90;999.90;;;16.90;99.90;;;;;;4862838;29;20443;-85
2022/10/25 03:08:19;;;;;;;1999.90;999.90;;;17.60;99.90;;;;;;4879892;29;20045;-85
2022/10/25 03:10:45;;;;;;;1999.90;999.90;;;18.40;99.90;;;;;;4879482;29;20513;-86
2022/10/25 03:13:11;;;;;;;1999.90;999.90;;;17.70;99.90;;;;;;4880331;29;20056;-85
2022/10/25 03:15:37;;;;;;;1999.90;999.90;;;18.60;99.90;;;;;;4880899;29;20049;-86
2022/10/25 03:18:03;;;;;;;1999.90;999.90;;;18.50;99.90;;;;;;4882460;29;20041;-85
2022/10/25 03:20:28;;;;;;;1999.90;999.90;;;17.00;99.90;;;;;;4881265;29;20049;-86
2022/10/25 03:22:54;;;;;;;1999.90;999.90;;;16.90;99.90;;;;;;4879509;29;20052;-83
2022/10/25 03:25:20;;;;;;;1999.90;999.90;;;18.10;99.90;;;;;;4879813;29;20041;-84
2022/10/25 03:27:45;;;;;;;1999.90;999.90;;;17.00;99.90;;;;;;4879155;29;20116;-84
2022/10/25 03:30:13;;;;;;;1999.90;999.90;;;18.50;99.90;;;;;;4877881;29;20086;-83
2022/10/25 03:32:39;;;;;;;1999.90;999.90;;;17.00;99.90;;;;;;4879000;29;20475;-83
2022/10/25 03:35:05;;;;;;;1999.90;999.90;;;17.80;99.90;;;;;;4878937;29;20128;-83
2022/10/25 03:37:31;;;;;;;1999.90;999.90;;;17.30;99.90;;;;;;4878902;29;20057;-84
2022/10/25 03:39:58;;;;;;;1999.90;999.90;;;17.80;99.90;;;;;;4878816;29;20063;-86
2022/10/25 03:42:23;;;;;;;1999.90;999.90;;;18.70;99.90;;;;;;4879583;29;20049;-83
2022/10/25 03:44:50;;;;;;;1999.90;999.90;;;17.20;99.90;;;;;;4877569;29;20542;-83
2022/10/25 03:47:16;;;;;;;1999.90;999.90;;;18.20;99.90;;;;;;4879021;29;20108;-82
2022/10/25 03:49:41;;;;;;;1999.90;999.90;;;17.20;99.90;;;;;;4878614;29;20056;-82
2022/10/25 03:52:08;;;;;;;1999.90;999.90;;;17.10;99.90;;;;;;4877604;29;20052;-83
2022/10/25 03:54:33;;;;;;;1999.90;999.90;;;17.10;99.90;;;;;;4878272;29;20471;-82
2022/10/25 03:57:00;;;;;;;1999.90;999.90;;;17.10;99.90;;;;;;4878254;29;20049;-84
2022/10/25 03:59:26;;;;;;;1999.90;999.90;;;17.00;99.90;;;;;;4878493;29;20092;-80
2022/10/25 04:01:52;;;;;;;1999.90;999.90;;;18.70;99.90;;;;;;4877404;29;20518;-81
2022/10/25 04:04:18;;;;;;;1990.63;381.98;;;18.70;99.90;;;;;;4878654;29;20049;-80
2022/10/25 04:06:43;;;;;;;1999.90;999.90;;;18.40;99.90;;;;;;4878743;29;20041;-81
2022/10/25 04:09:09;;;;;;;1999.90;999.90;;;18.20;99.90;;;;;;4879766;29;20049;-80
2022/10/25 04:11:35;;;;;;;1999.90;999.90;;;17.60;99.90;;;;;;4878658;29;20459;-80
2022/10/25 04:14:01;;;;;;;1999.90;999.90;;;18.20;99.90;;;;;;4877469;29;20045;-80
2022/10/25 04:16:26;;;;;;;1999.90;999.90;;;17.20;99.90;;;;;;4879409;29;20061;-80
2022/10/25 04:18:52;;;;;;;1999.90;999.90;;;18.00;99.90;;;;;;4878030;29;20285;-81
2022/10/25 04:21:20;;;;;;;1999.90;999.90;;;17.90;99.90;;;;;;4878137;29;20048;-80
2022/10/25 04:23:45;;;;;;;1999.90;999.90;;;18.90;99.90;;;;;;4878268;29;20057;-80
2022/10/25 04:26:16;;;;;;;1999.90;999.90;;;17.20;99.90;;;;;;4877824;29;20051;-82
2022/10/25 04:28:42;;;;;;;1999.90;999.90;;;18.90;99.90;;;;;;4878036;29;20101;-83
2022/10/25 04:31:07;;;;;;;1999.90;999.90;;;17.10;99.90;;;;;;4878386;29;20084;-79
2022/10/25 04:33:33;;;;;;;1999.90;999.90;;;17.40;99.90;;;;;;4877266;29;20521;-80
2022/10/25 04:35:59;;;;;;;1999.90;999.90;;;18.90;99.90;;;;;;4876725;29;20053;-79
2022/10/25 04:38:24;;;;;;;1999.90;999.90;;;18.90;99.90;;;;;;4876678;29;20068;-78
2022/10/25 04:40:57;;;;;;;1999.90;999.90;;;17.10;99.90;;;;;;4877349;29;20049;-81
2022/10/25 04:43:24;;;;;;;1999.90;999.90;;;18.90;99.90;;;;;;4878491;29;20061;-78
2022/10/25 04:45:50;;;;;;;1999.90;999.90;;;18.00;99.90;;;;;;4878008;29;20048;-79
2022/10/25 04:48:17;;;;;;;1999.90;999.90;;;19.00;99.90;;;;;;4878589;29;20805;-79
2022/10/25 04:50:42;;;;;;;1999.90;999.90;;;17.20;99.90;;;;;;4878339;29;20041;-79
2022/10/25 04:53:08;;;;;;;1999.90;999.90;;;18.20;99.90;;;;;;4878276;29;20604;-82
2022/10/25 04:55:35;;;;;;;1999.90;999.90;;;17.20;99.90;;;;;;4877155;29;20402;-79
2022/10/25 04:58:00;;;;;;;1999.90;999.90;;;18.80;99.90;;;;;;4860892;29;20065;-79
2022/10/25 05:00:26;;;;;;;1999.90;999.90;;;18.80;99.90;;;;;;4879136;29;20067;-79
2022/10/25 05:02:53;;;;;;;1999.90;999.90;;;17.30;99.90;;;;;;4878164;29;20045;-79
2022/10/25 05:05:19;;;;;;;1999.90;999.90;;;18.60;99.90;;;;;;4877768;29;20507;-79
2022/10/25 05:07:45;;;;;;;1999.90;999.90;;;18.40;99.90;;;;;;4877537;29;20045;-79
2022/10/25 05:10:11;;;;;;;1999.90;999.90;;;17.10;99.90;;;;;;4878722;29;20605;-79
2022/10/25 05:12:37;;;;;;;1999.90;999.90;;;18.50;99.90;;;;;;4878503;29;20048;-78
2022/10/25 05:15:04;;;;;;;1999.90;999.90;;;18.90;99.90;;;;;;4876188;29;20137;-79
2022/10/25 05:17:30;;;;;;;1999.90;999.90;;;18.30;99.90;;;;;;4876792;29;20509;-78
2022/10/25 05:19:56;;;;;;;1999.90;999.90;;;17.40;99.90;;;;;;4878002;29;20088;-78
2022/10/25 05:22:22;;;;;;;1999.90;999.90;;;18.90;99.90;;;;;;4877738;29;20037;-79
2022/10/25 05:24:48;;;;;;;1999.90;999.90;;;17.20;99.90;;;;;;4861229;29;20102;-81
2022/10/25 05:27:13;;;;;;;1999.90;999.90;;;17.20;99.90;;;;;;4878776;29;20457;-79
2022/10/25 05:29:39;;;;;;;1999.90;999.90;;;17.40;99.90;;;;;;4878506;29;20049;-88
2022/10/25 05:32:05;;;;;;;1999.90;999.90;;;17.20;99.90;;;;;;4861437;29;20059;-77
2022/10/25 05:34:30;;;;;;;1999.90;999.90;;;18.40;99.90;;;;;;4877473;29;20148;-82
2022/10/25 05:36:57;;;;;;;1999.90;999.90;;;17.20;99.90;;;;;;4876771;29;20072;-77
2022/10/25 05:39:22;;;;;;;1999.90;999.90;;;17.90;99.90;;;;;;4878213;29;20056;-78
2022/10/25 05:41:51;;;;;;;1999.90;999.90;;;17.10;99.90;;;;;;4878058;29;20041;-77
2022/10/25 05:44:17;;;;;;;1999.90;999.90;;;17.90;99.90;;;;;;4877923;29;20059;-78
2022/10/25 05:46:43;;;;;;;1999.90;999.90;;;18.70;99.90;;;;;;4878329;29;20044;-77
2022/10/25 05:49:10;;;;;;;1999.90;999.90;;;18.40;99.90;;;;;;4878702;29;20049;-77
2022/10/25 05:51:36;;;;;;;1999.90;999.90;;;18.90;99.90;;;;;;4877273;29;20052;-77
2022/10/25 05:54:10;;;;;;;1999.90;999.90;;;18.40;99.90;;;;;;4877982;29;20444;-77
2022/10/25 05:56:36;;;;;;;1999.90;999.90;;;18.90;99.90;;;;;;4877541;29;20077;-79
2022/10/25 05:59:07;;;;;;;1999.90;999.90;;;17.80;99.90;;;;;;4877530;29;20438;-79
2022/10/25 06:01:34;;;;;;;1999.90;999.90;;;17.00;99.90;;;;;;4876927;29;20056;-78
2022/10/25 06:04:00;;;;;;;1999.90;999.90;;;17.00;99.90;;;;;;4877950;29;20060;-77
2022/10/25 06:06:26;;;;;;;1999.90;999.90;;;17.00;99.90;;;;;;4860896;29;20061;-83
2022/10/25 06:08:56;;;;;;;1999.90;999.90;;;18.80;99.90;;;;;;4878252;29;20486;-78
2022/10/25 06:11:22;;;;;;;1999.90;999.90;;;18.20;99.90;;;;;;4877960;29;20113;-77
2022/10/25 06:13:48;;;;;;;1999.90;999.90;;;17.00;99.90;;;;;;4878422;29;20060;-77
2022/10/25 06:16:16;;;;;;;1999.90;999.90;;;17.20;99.90;;;;;;4880712;29;20499;-84
2022/10/25 06:18:43;;;;;;;1999.90;999.90;;;18.90;99.90;;;;;;4879973;29;20049;-79
2022/10/25 06:21:18;;;;;;;1999.90;999.90;;;18.50;99.90;;;;;;4880214;29;20123;-83
2022/10/25 06:23:44;;;;;;;1999.90;999.90;;;18.70;99.90;;;;;;4880362;29;20045;-80
2022/10/25 06:26:13;;;;;;;1999.90;999.90;;;17.10;99.90;;;;;;4879044;29;20100;-78
2022/10/25 06:28:40;;;;;;;1999.90;999.90;;;18.20;99.90;;;;;;4880760;29;20517;-78
2022/10/25 06:31:07;;;;;;;1999.90;999.90;;;18.90;99.90;;;;;;4863564;29;20056;-78
2022/10/25 06:33:33;;;;;;;1999.90;999.90;;;18.80;99.90;;;;;;4880512;29;20053;-77
2022/10/25 06:36:01;;;;;;;1999.90;999.90;;;18.80;99.90;;;;;;4880703;29;20059;-77
2022/10/25 06:38:27;;;;;;;1999.90;999.90;;;17.80;99.90;;;;;;4881682;29;20053;-78
2022/10/25 06:41:02;;;;;;;1999.90;999.90;;;17.00;99.90;;;;;;4881229;29;20133;-78
2022/10/25 06:43:28;;;;;;;1999.90;999.90;;;17.70;99.90;;;;;;4881705;29;20045;-78
2022/10/25 06:45:54;;;;;;;1999.90;999.90;;;18.80;99.90;;;;;;4880480;29;20055;-84
2022/10/25 06:48:20;;;;;;;1999.90;999.90;;;17.90;99.90;;;;;;4882354;29;20103;-78
2022/10/25 06:50:47;;;;;;;1999.90;999.90;;;17.20;99.90;;;;;;4881023;29;20294;-78
2022/10/25 06:53:13;;;;;;;1999.90;999.90;;;18.90;99.90;;;;;;4864441;29;20127;-78
2022/10/25 06:55:39;;;;;;;1999.90;999.90;;;17.70;99.90;;;;;;4864496;29;20049;-77
2022/10/25 06:58:04;;;;;;;1999.90;999.90;;;17.60;99.90;;;;;;4880758;29;20063;-79
2022/10/25 07:00:33;;;;;;;1999.90;999.90;;;17.50;99.90;;;;;;4881022;29;20113;-77
2022/10/25 07:02:59;;;;;;;1999.90;999.90;;;17.90;99.90;;;;;;4881003;29;20056;-78
2022/10/25 07:05:25;;;;;;;1999.90;999.90;;;18.90;99.90;;;;;;4879670;29;20041;-78
2022/10/25 07:07:51;;;;;;;1999.90;999.90;;;17.20;99.90;;;;;;4863778;29;20060;-79
2022/10/25 07:10:18;;;;;;;1999.90;999.90;;;18.90;99.90;;;;;;4881038;29;20048;-78
2022/10/25 07:12:44;;;;;;;1999.90;999.90;;;18.80;99.90;;;;;;4881006;29;20049;-78
2022/10/25 07:15:10;;;;;;;1999.90;999.90;;;17.30;99.90;;;;;;4880657;29;20052;-78
2022/10/25 07:17:35;;;;;;;1999.90;999.90;;;18.00;99.90;;;;;;4880708;29;20049;-78
2022/10/25 07:20:02;;;;;;;1999.90;999.90;;;17.70;99.90;;;;;;4880251;29;20051;-78
2022/10/25 07:22:28;;;;;;;1999.90;999.90;;;18.00;99.90;;;;;;4880894;29;20045;-78
2022/10/25 07:24:54;;;;;;;1999.90;999.90;;;17.50;99.90;;;;;;4880104;29;20126;-79
2022/10/25 07:27:19;;;;;;;1999.90;999.90;;;17.40;99.90;;;;;;4880584;29;20095;-79
2022/10/25 07:29:45;;;;;;;1999.90;999.90;;;19.30;99.90;;;;;;4880548;29;20505;-80
2022/10/25 07:32:11;;;;;;;1999.90;999.90;;;19.30;99.90;;;;;;4880384;29;20088;-78
2022/10/25 07:34:37;;;;;;;1999.90;999.90;;;19.40;99.90;;;;;;4880281;29;20112;-78
2022/10/25 07:37:03;;;;;;;1999.90;999.90;;;19.50;99.90;;;;;;4880447;29;20092;-81
2022/10/25 07:39:28;;;;;;;1999.90;999.90;;;19.40;99.90;;;;;;4879156;29;20049;-84
2022/10/25 07:41:54;;;;;;;1999.90;999.90;;;19.60;99.90;;;;;;4878770;29;20051;-84
2022/10/25 07:44:20;;;;;;;1999.90;999.90;;;19.30;99.90;;;;;;4879397;29;20045;-78
2022/10/25 07:46:46;;;;;;;1999.90;999.90;;;17.90;99.90;;;;;;4880363;29;20049;-78
2022/10/25 07:49:12;;;;;;;1999.90;999.90;;;18.40;99.90;;;;;;4879988;29;20053;-78
2022/10/25 07:51:38;;;;;;;1999.90;999.90;;;17.90;99.90;;;;;;4879853;29;20049;-78
2022/10/25 07:54:04;;;;;;;1999.90;999.90;;;18.40;99.90;;;;;;4880385;29;20052;-78
2022/10/25 07:56:30;;;;;;;1999.90;999.90;;;18.60;99.90;;;;;;4880078;29;20482;-78
2022/10/25 07:58:55;;;;;;;1999.90;999.90;;;18.70;99.90;;;;;;4878539;29;20064;-78
2022/10/25 08:01:23;;;;;;;1999.90;999.90;;;18.20;99.90;;;;;;4878773;29;20045;-78
2022/10/25 08:03:50;;;;;;;;;;;19.80;99.90;;;;;;4880538;29;20063;-79
2022/10/25 08:06:16;;;;;;;1999.90;999.90;;;18.10;99.90;;;;;;4863030;29;19924;-79
2022/10/25 08:08:41;;;;;;;1999.90;999.90;;;18.40;99.90;;;;;;4880054;29;20503;-79
2022/10/25 08:11:07;;;;;;;1999.90;999.90;;;18.70;99.90;;;;;;4862902;29;20060;-79
2022/10/25 08:13:35;;;;;;;1999.90;999.90;;;18.60;99.90;;;;;;4879567;29;20045;-79
2022/10/25 08:16:01;;;;;;;1999.90;999.90;;;18.70;99.90;;;;;;4879620;29;20057;-79
2022/10/25 08:18:27;;;;;;;1999.90;999.90;;;18.80;99.90;;;;;;4879910;29;20466;-78
2022/10/25 08:20:53;;;;;;;1999.90;999.90;;;19.80;99.90;;;;;;4878284;29;20045;-79
2022/10/25 08:23:18;;;;;;;1999.90;999.90;;;19.50;99.90;;;;;;4879397;29;20427;-80
2022/10/25 08:25:44;;;;;;;1999.90;999.90;;;20.20;99.90;;;;;;4879487;29;20131;-79
2022/10/25 08:28:10;;;;;;;1999.90;999.90;;;18.60;99.90;;;;;;4879505;29;20055;-80
2022/10/25 08:30:36;;;;;;;1999.90;999.90;;;19.00;99.90;;;;;;4879739;29;20095;-80
2022/10/25 08:33:02;;;;;;;1999.90;999.90;;;19.50;99.90;;;;;;4879392;29;20105;-79
2022/10/25 08:35:28;;;;;;;1999.90;999.90;;;18.80;99.90;;;;;;4879002;29;20045;-78
2022/10/25 08:37:53;;;;;;;1333.40;517.28;;;18.70;99.90;;;;;;4878818;29;20455;-78
2022/10/25 08:40:27;;;;;;;1999.90;999.90;;;20.30;99.90;;;;;;4879294;29;20326;-79
2022/10/25 08:43:00;;;;;;;1999.90;999.90;;;20.50;99.90;;;;;;4879532;29;20082;-79
2022/10/25 08:45:32;;;;;;;1999.90;999.90;;;19.40;99.90;;;;;;4879328;29;20049;-79
2022/10/25 08:48:00;;;;;;;1999.90;999.90;;;20.80;99.90;;;;;;4863043;29;20144;-79
2022/10/25 08:50:43;;;;;;;1999.90;999.90;;;20.20;99.90;;;;;;4878928;29;20091;-78
2022/10/25 08:53:24;;;;;;;1999.90;999.90;;;19.00;99.90;;;;;;4878707;29;20490;-79
2022/10/25 08:55:50;;;;;;;1999.90;999.90;;;20.20;99.90;;;;;;4879073;29;20049;-81
2022/10/25 08:58:35;;;;;;;1999.90;999.90;;;18.80;99.90;;;;;;4878931;29;20068;-80
2022/10/25 09:01:11;;;;;;;1999.90;999.90;;;19.10;99.90;;;;;;4879207;29;20056;-79
2022/10/25 09:03:39;;;;;;;1999.90;999.90;;;19.40;99.90;;;;;;4879336;29;20057;-79
2022/10/25 09:06:26;;;;;;;1999.90;999.90;;;19.10;99.90;;;;;;4878326;29;20067;-79
2022/10/25 09:08:57;;;;;;;1999.90;999.90;;;19.60;99.90;;;;;;4878946;29;20049;-79
2022/10/25 09:11:54;;;;;;;1999.90;999.90;;;20.70;99.90;;;;;;4878621;29;20045;-79
2022/10/25 09:14:43;;;;;;;1999.90;999.90;;;19.40;99.90;;;;;;4862343;29;20053;-80
2022/10/25 09:17:25;;;;;;;1999.90;999.90;;;20.40;99.90;;;;;;4862090;29;20148;-80
2022/10/25 09:20:14;;;;;;;1999.90;999.90;;;19.40;99.90;;;;;;4878649;29;20409;-80
2022/10/25 09:23:28;;;;;;;1999.90;999.90;;;20.40;99.90;;;;;;4879049;29;20040;-81
2022/10/25 09:26:00;;;;;;;1999.90;999.90;;;19.70;99.90;;;;;;4878070;29;20060;-80
2022/10/25 09:28:44;;;;;;;1999.90;999.90;;;19.70;99.90;;;;;;4878344;29;20296;-80
2022/10/25 09:31:15;;;;;;;1999.90;999.90;;;19.70;99.90;;;;;;4878438;29;20177;-81
2022/10/25 09:33:45;;;;;;;1999.90;627.15;;;20.80;99.90;;;;;;4879043;29;20112;-81
2022/10/25 09:36:13;;;;;;;1999.90;510.55;;;20.60;99.90;;;;;;4877831;29;20059;-81
2022/10/25 09:38:50;;;;;;;1948.28;415.48;;;19.80;99.90;;;;;;4878141;29;20565;-81
2022/10/25 09:41:38;;;;;;;1999.90;999.90;;;20.00;99.90;;;;;;4878418;29;20045;-82
2022/10/25 09:44:25;;;;;;;1999.90;618.05;;;20.00;99.90;;;;;;4878914;29;20053;-81
2022/10/25 09:46:55;;;;;;;1999.90;999.90;;;20.80;99.90;;;;;;4878746;29;20055;-81
2022/10/25 09:49:32;;;;;;;1999.90;999.90;;;20.00;99.90;;;;;;4880221;29;20112;-81
2022/10/25 09:52:29;;;;;;;1999.90;999.90;;;20.60;99.90;;;;;;4882510;29;20049;-81
2022/10/25 09:54:54;;;;;;;1999.90;999.90;;;20.30;99.90;;;;;;4882580;29;20057;-82
2022/10/25 09:57:20;;;;;;;1999.90;999.90;;;20.20;99.90;;;;;;4882240;29;20071;-82
2022/10/25 09:59:50;;;;;;;1999.90;999.90;;;19.80;99.90;;;;;;4880413;29;20381;-82
2022/10/25 10:02:24;;;;;;;1999.90;999.90;;;20.30;99.90;;;;;;4882079;29;20056;-82
2022/10/25 10:04:50;;;;;;;1999.90;999.90;;;20.60;99.90;;;;;;4864548;29;20120;-82
2022/10/25 10:07:36;;;;;;;1999.90;999.90;;;19.90;99.90;;;;;;4880884;29;20060;-82
2022/10/25 10:10:09;;;;;;;1999.90;999.90;;;20.50;99.90;;;;;;4880956;29;20053;-81
2022/10/25 10:12:44;;;;;;;1999.90;999.90;;;20.60;99.90;;;;;;4881800;29;20074;-82
2022/10/25 10:15:19;;;;;;;1999.90;999.90;;;20.20;99.90;;;;;;4864833;29;20129;-82
2022/10/25 10:17:44;;;;;;;1999.90;999.90;;;20.20;99.90;;;;;;4881565;29;20049;-82
2022/10/25 10:20:17;;;;;;;1999.90;999.90;;;20.20;99.90;;;;;;4863266;29;20053;-82
2022/10/25 10:22:49;;;;;;;1999.90;999.90;;;20.40;99.90;;;;;;4880740;29;20045;-82
2022/10/25 10:25:21;;;;;;;1999.90;999.90;;;20.30;99.90;;;;;;4880503;29;20049;-82
2022/10/25 10:27:49;;;;;;;1999.90;999.90;;;19.90;99.90;;;;;;4880658;29;20056;-83
2022/10/25 10:30:30;;;;;;;1999.90;999.90;;;19.80;99.90;;;;;;4879300;29;20085;-83
2022/10/25 10:32:59;;;;;;;1999.90;999.90;;;19.90;99.90;;;;;;4880639;29;20045;-83
2022/10/25 10:35:29;;;;;;;1999.90;999.90;;;20.10;99.90;;;;;;4881125;29;20092;-82
2022/10/25 10:38:13;;;;;;;1999.90;999.90;;;20.10;99.90;;;;;;4881777;29;20049;-83
2022/10/25 10:40:39;;;;;;;1999.90;999.90;;;20.20;99.90;;;;;;4881289;29;20119;-83
2022/10/25 10:43:27;;;;;;;1999.90;999.90;;;20.10;99.90;;;;;;4865297;29;20053;-83
2022/10/25 10:45:56;;;;;;;1999.90;999.90;;;20.30;99.90;;;;;;4881570;29;20053;-83
2022/10/25 10:48:23;;;;;;;1999.90;999.90;;;20.40;99.90;;;;;;4880090;29;20062;-83
2022/10/25 10:50:50;;;;;;;1999.90;999.90;;;20.40;99.90;;;;;;4879844;29;20045;-83
2022/10/25 10:53:21;;;;;;;1999.90;999.90;;;20.30;99.90;;;;;;4864386;29;20048;-83
2022/10/25 10:55:49;;;;;;;1999.90;999.90;;;20.40;99.90;;;;;;4879658;29;20061;-83
2022/10/25 10:58:15;;;;;;;1999.90;999.90;;;20.50;99.90;;;;;;4880857;29;20415;-83
2022/10/25 11:00:49;;;;;;;1999.90;999.90;;;20.40;99.90;;;;;;4880077;29;20136;-83
2022/10/25 11:03:36;;;;;;;1999.90;999.90;;;20.30;99.90;;;;;;4881353;29;20084;-83
2022/10/25 11:06:06;;;;;;;1999.90;999.90;;;20.20;99.90;;;;;;4880864;29;20118;-83
2022/10/25 11:08:32;;;;;;;1999.90;999.90;;;20.20;1.00;;;;;;4880666;29;20116;-83
2022/10/25 11:11:17;;;;;;;1999.90;999.90;;;20.20;99.90;;;;;;4879587;29;20087;-83
2022/10/25 11:13:51;;;;;;;1999.90;999.90;;;20.30;1.00;;;;;;4881250;29;20053;-83
2022/10/25 11:16:41;;;;;;;1999.90;999.90;;;20.40;1.00;;;;;;4880899;29;20057;-84
2022/10/25 11:19:29;;;;;;;1999.90;999.90;;;20.40;1.00;;;;;;4880792;29;20049;-83
2022/10/25 11:22:25;;;;;;;1999.90;999.90;;;20.40;1.00;;;;;;4879808;29;20083;-83
2022/10/25 11:24:54;;;;;;;1999.90;999.90;;;20.50;1.00;;;;;;4880941;29;20072;-82
2022/10/25 11:27:35;;;;;;;1999.90;999.90;;;20.50;1.00;;;;;;4880925;29;20198;-83
2022/10/25 11:30:04;;;;;;;1999.90;999.90;;;20.40;33.80;;;;;;4880851;29;20100;-83
2022/10/25 11:33:07;;;;;;;1999.90;999.90;;;20.50;30.60;;;;;;4880455;29;20487;-83
2022/10/25 11:35:41;;;;;;;1999.90;999.90;;;20.50;1.00;;;;;;4880099;29;20447;-83
2022/10/25 11:38:51;;;;;;;1999.90;999.90;;;20.50;99.90;;;;;;4863672;29;20080;-83
2022/10/25 11:41:25;;;;;;;1999.90;999.90;;;20.40;1.00;;;;;;4877893;29;20056;-83
2022/10/25 11:44:25;;;;;;;1999.90;999.90;;;20.30;99.90;;;;;;4879595;29;20064;-83
2022/10/25 11:47:10;;;;;;;1999.90;999.90;;;20.20;99.90;;;;;;4863388;29;20087;-83
2022/10/25 11:50:11;;;;;;;1999.90;999.90;;;20.20;99.90;;;;;;4863104;29;20093;-83
2022/10/25 11:52:42;;;;;;;1999.90;999.90;;;20.20;99.90;;;;;;4863515;29;20060;-83
2022/10/25 11:55:43;;;;;;;1999.90;999.90;;;20.30;99.90;;;;;;4880276;29;20131;-83
2022/10/25 11:58:27;;;;;;;1999.90;999.90;;;20.50;99.90;;;;;;4879037;29;20567;-83
2022/10/25 12:01:15;;;;;;;1999.90;999.90;;;20.70;99.90;;;;;;4879692;29;20084;-82
2022/10/25 12:03:43;;;;;;;1999.90;999.90;;;20.80;38.70;;;;;;4879954;29;20159;-83
2022/10/25 12:06:31;;;;;;;1999.90;999.90;;;20.90;92.50;;;;;;4879536;29;20085;-83
2022/10/25 12:09:22;;;;;;;1999.90;999.90;;;20.90;99.90;;;;;;4879964;29;20049;-81
2022/10/25 12:11:57;;;;;;;1999.90;999.90;;;21.00;53.80;;;;;;4879442;29;20553;-84
2022/10/25 12:14:29;;;;;;;1999.90;999.90;;;20.90;73.90;;;;;;4879807;29;20475;-83
2022/10/25 12:16:57;;;;;;;1999.90;999.90;;;20.70;69.10;;;;;;4878623;29;20511;-82
2022/10/25 12:19:27;;;;;;;1999.90;999.90;;;20.60;99.90;;;;;;4863272;29;20049;-82